createdAt,value
2019-02-25T00:00:19.681Z,14.47
2019-02-25T00:02:49.624Z,14.30
2019-02-25T00:05:17.976Z,13.40
2019-02-25T00:07:46.330Z,12.90
2019-02-25T00:10:14.681Z,15.70
2019-02-25T00:12:43.034Z,14.53
2019-02-25T00:15:11.388Z,13.20
2019-02-25T00:17:39.793Z,15.37
2019-02-25T00:20:09.315Z,15.00
2019-02-25T00:22:37.673Z,14.03
2019-02-25T00:25:08.552Z,14.77
2019-02-25T00:27:36.902Z,16.70
2019-02-25T00:30:06.878Z,14.10
2019-02-25T00:32:35.305Z,14.03
2019-02-25T00:35:04.238Z,14.33
2019-02-25T00:37:32.588Z,13.77
2019-02-25T00:40:00.947Z,15.07
2019-02-25T00:42:29.768Z,16.10
2019-02-25T00:44:58.110Z,13.80
2019-02-25T00:47:26.456Z,14.33
2019-02-25T00:49:54.841Z,17.07
2019-02-25T00:52:23.233Z,14.43
2019-02-25T00:54:51.593Z,15.77
2019-02-25T00:57:19.934Z,13.40
2019-02-25T00:59:48.286Z,14.70
2019-02-25T01:02:16.634Z,15.77
2019-02-25T01:04:44.987Z,16.73
2019-02-25T01:07:13.338Z,15.87
2019-02-25T01:09:41.673Z,16.70
2019-02-25T01:12:10.021Z,16.30
2019-02-25T01:14:38.364Z,14.50
2019-02-25T01:17:06.702Z,15.53
2019-02-25T01:19:35.051Z,14.10
2019-02-25T01:22:03.393Z,14.73
2019-02-25T01:24:31.745Z,13.67
2019-02-25T01:27:00.100Z,12.93
2019-02-25T01:29:28.442Z,14.90
2019-02-25T01:31:56.793Z,16.20
2019-02-25T01:34:25.141Z,14.77
2019-02-25T01:36:53.510Z,15.77
2019-02-25T01:39:21.840Z,15.30
2019-02-25T01:41:50.193Z,14.33
2019-02-25T01:44:18.536Z,16.73
2019-02-25T01:46:46.873Z,14.07
2019-02-25T01:49:15.238Z,16.13
2019-02-25T01:51:43.576Z,16.03
2019-02-25T01:54:11.926Z,14.33
2019-02-25T01:56:40.589Z,14.30
2019-02-25T01:59:08.932Z,13.70
2019-02-25T02:01:37.284Z,12.80
2019-02-25T02:04:05.629Z,15.13
2019-02-25T02:06:33.968Z,12.83
2019-02-25T02:09:02.714Z,12.83
2019-02-25T02:11:32.666Z,11.90
2019-02-25T02:14:01.008Z,15.50
2019-02-25T02:16:29.367Z,13.53
2019-02-25T02:18:57.700Z,16.93
2019-02-25T02:21:26.046Z,15.47
2019-02-25T02:23:54.385Z,14.77
2019-02-25T02:26:22.738Z,15.50
2019-02-25T02:28:51.086Z,14.33
2019-02-25T02:31:19.422Z,10.90
2019-02-25T02:33:47.760Z,12.07
2019-02-25T02:36:16.106Z,16.27
2019-02-25T02:38:44.429Z,12.57
2019-02-25T02:41:12.757Z,18.83
2019-02-25T02:43:41.105Z,13.20
2019-02-25T02:46:26.017Z,13.80
2019-02-25T02:48:55.936Z,11.07
2019-02-25T02:51:24.270Z,15.37
2019-02-25T02:53:52.609Z,12.57
2019-02-25T02:56:20.949Z,14.17
2019-02-25T02:58:49.303Z,13.07
2019-02-25T03:01:17.653Z,13.67
2019-02-25T03:03:45.991Z,13.33
2019-02-25T03:06:14.351Z,13.13
2019-02-25T03:08:42.773Z,12.17
2019-02-25T03:11:11.101Z,12.53
2019-02-25T03:13:39.451Z,12.43
2019-02-25T03:16:07.794Z,15.80
2019-02-25T03:18:36.142Z,11.40
2019-02-25T03:21:04.490Z,12.87
2019-02-25T03:23:32.840Z,11.67
2019-02-25T03:26:01.169Z,11.60
2019-02-25T03:28:29.523Z,13.07
2019-02-25T03:30:57.872Z,14.63
2019-02-25T03:33:26.194Z,14.47
2019-02-25T03:35:54.542Z,11.90
2019-02-25T03:38:22.886Z,14.03
2019-02-25T03:40:51.228Z,13.60
2019-02-25T03:43:19.575Z,11.33
2019-02-25T03:45:47.915Z,12.70
2019-02-25T03:48:16.254Z,11.67
2019-02-25T03:50:44.601Z,13.10
2019-02-25T03:53:12.943Z,11.77
2019-02-25T03:55:41.306Z,14.30
2019-02-25T03:58:09.716Z,11.73
2019-02-25T04:00:39.327Z,12.03
2019-02-25T04:03:07.673Z,12.67
2019-02-25T04:05:36.018Z,12.20
2019-02-25T04:08:04.368Z,13.33
2019-02-25T04:10:32.785Z,16.17
2019-02-25T04:13:01.119Z,11.67
2019-02-25T04:15:33.522Z,14.00
2019-02-25T04:18:01.869Z,13.00
2019-02-25T04:20:30.221Z,10.60
2019-02-25T04:22:58.564Z,13.03
2019-02-25T04:25:26.908Z,12.83
2019-02-25T04:27:55.263Z,13.97
2019-02-25T04:30:23.608Z,13.20
2019-02-25T04:32:51.955Z,10.63
2019-02-25T04:35:20.298Z,12.03
2019-02-25T04:37:48.634Z,12.43
2019-02-25T04:40:16.978Z,11.47
2019-02-25T04:42:45.318Z,12.67
2019-02-25T04:45:14.926Z,12.23
2019-02-25T04:47:43.273Z,14.90
2019-02-25T04:50:12.283Z,11.27
2019-02-25T04:52:40.611Z,12.87
2019-02-25T04:55:09.918Z,11.63
2019-02-25T04:57:38.259Z,14.13
2019-02-25T05:00:13.989Z,11.73
2019-02-25T05:02:42.403Z,10.47
2019-02-25T05:05:11.821Z,11.57
2019-02-25T05:07:40.165Z,12.07
2019-02-25T05:10:09.781Z,12.83
2019-02-25T05:12:39.212Z,11.43
2019-02-25T05:15:10.050Z,12.80
2019-02-25T05:17:38.409Z,13.07
2019-02-25T05:20:07.213Z,12.73
2019-02-25T05:22:37.503Z,13.97
2019-02-25T05:25:06.770Z,11.83
2019-02-25T05:27:35.119Z,13.17
2019-02-25T05:30:04.720Z,10.57
2019-02-25T05:32:33.072Z,11.87
2019-02-25T05:35:01.406Z,12.40
2019-02-25T05:37:29.763Z,14.87
2019-02-25T05:39:58.107Z,12.53
2019-02-25T05:42:26.464Z,12.33
2019-02-25T05:44:55.050Z,11.77
2019-02-25T05:47:23.380Z,11.47
2019-02-25T05:49:51.728Z,13.07
2019-02-25T05:52:21.123Z,11.57
2019-02-25T05:54:49.475Z,12.97
2019-02-25T05:57:17.811Z,13.53
2019-02-25T05:59:46.168Z,12.47
2019-02-25T06:02:15.995Z,14.27
2019-02-25T06:04:44.343Z,15.03
2019-02-25T06:07:12.693Z,12.50
2019-02-25T06:09:41.030Z,14.83
2019-02-25T06:12:09.377Z,16.37
2019-02-25T06:14:37.714Z,12.80
2019-02-25T06:17:06.061Z,15.83
2019-02-25T06:19:34.398Z,11.83
2019-02-25T06:22:02.753Z,14.07
2019-02-25T06:24:31.950Z,12.33
2019-02-25T06:27:00.288Z,14.60
2019-02-25T06:29:30.275Z,17.40
2019-02-25T06:31:58.609Z,16.67
2019-02-25T06:34:27.225Z,16.90
2019-02-25T06:36:56.047Z,17.17
2019-02-25T06:39:24.705Z,13.50
2019-02-25T06:41:53.052Z,18.00
2019-02-25T06:44:21.403Z,15.67
2019-02-25T06:46:51.385Z,16.80
2019-02-25T06:49:20.497Z,17.77
2019-02-25T06:51:48.868Z,17.87
2019-02-25T06:54:18.285Z,19.87
2019-02-25T06:56:46.622Z,21.83
2019-02-25T06:59:15.030Z,19.73
2019-02-25T07:01:43.386Z,20.97
2019-02-25T07:04:29.599Z,18.60
2019-02-25T07:06:59.587Z,19.27
2019-02-25T07:09:47.714Z,16.70
2019-02-25T07:12:17.713Z,19.90
2019-02-25T07:14:50.471Z,19.23
2019-02-25T07:17:22.614Z,18.93
2019-02-25T07:19:58.112Z,19.30
2019-02-25T07:22:30.822Z,13.43
2019-02-25T07:25:06.047Z,14.13
2019-02-25T07:27:41.974Z,18.67
2019-02-25T07:30:24.536Z,17.70
2019-02-25T07:33:11.745Z,17.10
2019-02-25T07:35:41.726Z,16.93
2019-02-25T07:38:29.453Z,21.00
2019-02-25T07:41:18.666Z,14.67
2019-02-25T07:44:06.889Z,17.27
2019-02-25T07:46:41.981Z,18.80
2019-02-25T07:49:14.701Z,19.73
2019-02-25T07:51:50.735Z,20.93
2019-02-25T07:54:26.611Z,17.13
2019-02-25T07:56:56.585Z,18.33
2019-02-25T07:59:38.570Z,16.27
2019-02-25T08:02:11.313Z,20.67
2019-02-25T08:04:57.650Z,18.73
2019-02-25T08:07:30.597Z,14.40
2019-02-25T08:10:06.279Z,17.00
2019-02-25T08:12:36.278Z,19.30
2019-02-25T08:15:08.971Z,17.30
2019-02-25T08:17:49.286Z,15.77
2019-02-25T08:20:35.669Z,18.77
2019-02-25T08:23:08.519Z,15.27
2019-02-25T08:25:57.308Z,17.90
2019-02-25T08:28:27.312Z,16.13
2019-02-25T08:30:59.129Z,17.13
2019-02-25T08:33:30.432Z,16.10
2019-02-25T08:36:05.171Z,16.23
2019-02-25T08:38:53.610Z,17.67
2019-02-25T08:41:38.379Z,22.53
2019-02-25T08:44:17.524Z,21.10
2019-02-25T08:46:52.211Z,18.87
2019-02-25T08:49:22.193Z,19.77
2019-02-25T08:51:50.560Z,22.27
2019-02-25T08:54:18.903Z,18.83
2019-02-25T08:56:49.359Z,17.90
2019-02-25T08:59:18.978Z,18.87
2019-02-25T09:01:48.010Z,20.10
2019-02-25T09:04:18.688Z,18.50
2019-02-25T09:06:48.115Z,17.97
2019-02-25T09:09:23.524Z,19.70
2019-02-25T09:11:51.906Z,17.73
2019-02-25T09:14:20.241Z,18.90
2019-02-25T09:16:48.598Z,19.60
2019-02-25T09:19:16.938Z,20.57
2019-02-25T09:21:45.292Z,14.83
2019-02-25T09:24:15.963Z,17.00
2019-02-25T09:27:00.384Z,17.73
2019-02-25T09:29:39.576Z,17.90
2019-02-25T09:32:05.024Z,16.53
2019-02-25T09:34:34.540Z,14.07
2019-02-25T09:37:05.476Z,21.00
2019-02-25T09:39:34.122Z,18.23
2019-02-25T09:42:06.832Z,14.87
2019-02-25T09:44:35.173Z,16.30
2019-02-25T09:47:08.432Z,12.50
2019-02-25T09:49:38.415Z,13.20
2019-02-25T09:52:10.034Z,9.17
2019-02-25T09:54:39.267Z,14.90
2019-02-25T09:57:07.614Z,11.80
2019-02-25T09:59:35.952Z,12.87
2019-02-25T10:02:04.297Z,11.93
2019-02-25T10:04:34.263Z,12.47
2019-02-25T10:07:02.697Z,10.70
2019-02-25T10:09:32.441Z,9.63
2019-02-25T10:12:00.940Z,11.00
2019-02-25T10:14:30.510Z,12.30
2019-02-25T10:17:00.484Z,10.50
2019-02-25T10:19:28.831Z,10.70
2019-02-25T10:21:57.168Z,10.30
2019-02-25T10:24:27.826Z,13.47
2019-02-25T10:26:56.750Z,11.33
2019-02-25T10:29:28.753Z,11.40
2019-02-25T10:32:00.019Z,10.33
2019-02-25T10:34:31.929Z,12.93
2019-02-25T10:37:08.980Z,11.23
2019-02-25T10:39:43.205Z,10.10
2019-02-25T10:42:11.782Z,11.97
2019-02-25T10:44:41.081Z,8.83
2019-02-25T10:47:10.957Z,10.60
2019-02-25T10:49:39.458Z,10.53
2019-02-25T10:52:08.815Z,8.57
2019-02-25T10:54:41.097Z,10.90
2019-02-25T10:57:10.999Z,11.93
2019-02-25T10:59:41.451Z,9.30
2019-02-25T11:02:11.053Z,9.33
2019-02-25T11:04:39.417Z,15.47
2019-02-25T11:07:09.538Z,16.13
2019-02-25T11:09:40.291Z,13.47
2019-02-25T11:12:09.566Z,12.17
2019-02-25T11:14:38.950Z,11.80
2019-02-25T11:17:13.873Z,10.47
2019-02-25T11:19:42.961Z,10.20
2019-02-25T11:22:12.167Z,8.70
2019-02-25T11:24:42.497Z,15.87
2019-02-25T11:27:10.812Z,13.50
2019-02-25T11:29:40.488Z,9.30
2019-02-25T11:32:09.217Z,8.90
2019-02-25T11:34:37.793Z,10.03
2019-02-25T11:37:19.765Z,11.90
2019-02-25T11:39:54.790Z,10.73
2019-02-25T11:42:22.817Z,10.50
2019-02-25T11:44:54.262Z,14.87
2019-02-25T11:47:25.623Z,10.27
2019-02-25T11:49:54.931Z,12.07
2019-02-25T11:52:23.802Z,9.37
2019-02-25T11:54:52.139Z,9.20
2019-02-25T11:57:20.482Z,12.30
2019-02-25T11:59:48.824Z,11.40
2019-02-25T12:02:25.690Z,11.70
2019-02-25T12:04:50.557Z,11.43
2019-02-25T12:07:18.893Z,10.57
2019-02-25T12:09:49.541Z,10.83
2019-02-25T12:12:20.249Z,9.33
2019-02-25T12:14:49.931Z,9.67
2019-02-25T12:17:19.378Z,11.03
2019-02-25T12:19:47.722Z,9.17
2019-02-25T12:22:16.053Z,9.03
2019-02-25T12:24:44.709Z,10.13
2019-02-25T12:27:13.058Z,9.77
2019-02-25T12:29:41.436Z,11.50
2019-02-25T12:32:09.805Z,11.77
2019-02-25T12:34:38.145Z,12.43
2019-02-25T12:37:06.491Z,12.30
2019-02-25T12:39:34.852Z,10.83
2019-02-25T12:42:03.183Z,11.23
2019-02-25T12:44:31.843Z,9.90
2019-02-25T12:47:00.169Z,11.80
2019-02-25T12:49:28.507Z,10.30
2019-02-25T12:52:04.239Z,12.27
2019-02-25T12:54:32.577Z,9.00
2019-02-25T12:57:00.910Z,9.20
2019-02-25T12:59:29.329Z,10.40
2019-02-25T13:01:57.661Z,8.63
2019-02-25T13:04:25.996Z,10.27
2019-02-25T13:06:54.814Z,7.87
2019-02-25T13:09:23.142Z,8.63
2019-02-25T13:11:51.498Z,7.50
2019-02-25T13:14:19.827Z,6.60
2019-02-25T13:16:48.160Z,9.37
2019-02-25T13:19:16.509Z,9.30
2019-02-25T13:21:44.845Z,7.60
2019-02-25T13:24:15.814Z,10.07
2019-02-25T13:26:44.141Z,6.43
2019-02-25T13:29:12.554Z,5.90
2019-02-25T13:31:44.350Z,7.40
2019-02-25T13:34:15.637Z,6.30
2019-02-25T13:36:45.186Z,6.37
2019-02-25T13:39:13.849Z,7.57
2019-02-25T13:41:43.790Z,9.43
2019-02-25T13:44:12.122Z,8.83
2019-02-25T13:46:40.555Z,7.83
2019-02-25T13:49:08.978Z,14.93
2019-02-25T13:51:37.325Z,7.90
2019-02-25T13:54:05.734Z,11.00
2019-02-25T13:56:34.170Z,7.27
2019-02-25T13:59:02.759Z,5.73
2019-02-25T14:01:32.246Z,6.33
2019-02-25T14:04:00.669Z,5.43
2019-02-25T14:06:30.276Z,6.37
2019-02-25T14:08:58.615Z,7.83
2019-02-25T14:11:26.942Z,6.93
2019-02-25T14:13:55.279Z,5.17
2019-02-25T14:16:23.695Z,4.93
2019-02-25T14:18:52.029Z,5.83
2019-02-25T14:21:20.365Z,5.20
2019-02-25T14:23:48.789Z,8.47
2019-02-25T14:26:18.990Z,12.37
2019-02-25T14:28:48.659Z,8.33
2019-02-25T14:31:17.178Z,7.60
2019-02-25T14:33:45.586Z,9.00
2019-02-25T14:36:14.333Z,6.10
2019-02-25T14:38:42.667Z,5.07
2019-02-25T14:41:11.685Z,4.90
2019-02-25T14:43:46.156Z,8.23
2019-02-25T14:46:24.121Z,9.93
2019-02-25T14:48:52.684Z,4.83
2019-02-25T14:51:22.142Z,4.67
2019-02-25T14:53:52.737Z,5.30
2019-02-25T14:56:25.418Z,6.23
2019-02-25T14:58:53.112Z,7.47
2019-02-25T15:01:25.053Z,6.67
2019-02-25T15:03:53.166Z,5.77
2019-02-25T15:06:21.501Z,10.93
2019-02-25T15:08:49.857Z,6.87
2019-02-25T15:11:19.710Z,6.40
2019-02-25T15:13:48.041Z,5.80
2019-02-25T15:16:16.473Z,7.17
2019-02-25T15:18:45.989Z,9.27
2019-02-25T15:21:19.495Z,9.10
2019-02-25T15:23:51.097Z,5.03
2019-02-25T15:26:21.129Z,5.57
2019-02-25T15:28:51.934Z,4.57
2019-02-25T15:31:21.121Z,10.13
2019-02-25T15:33:49.471Z,3.30
2019-02-25T15:36:20.289Z,5.97
2019-02-25T15:38:47.918Z,3.83
2019-02-25T15:41:17.402Z,5.63
2019-02-25T15:43:45.801Z,5.17
2019-02-25T15:46:16.384Z,7.30
2019-02-25T15:48:44.182Z,3.90
2019-02-25T15:51:14.574Z,3.47
2019-02-25T15:53:46.200Z,3.33
2019-02-25T15:56:14.458Z,3.87
2019-02-25T15:58:42.794Z,4.30
2019-02-25T16:01:11.774Z,4.50
2019-02-25T16:03:41.004Z,4.43
2019-02-25T16:06:10.590Z,5.53
2019-02-25T16:08:39.261Z,3.97
2019-02-25T16:11:07.752Z,3.93
2019-02-25T16:13:37.775Z,7.23
2019-02-25T16:16:06.665Z,4.87
2019-02-25T16:18:35.005Z,4.03
2019-02-25T16:21:03.419Z,10.50
2019-02-25T16:23:32.022Z,6.13
2019-02-25T16:26:01.860Z,7.87
2019-02-25T16:28:33.398Z,5.30
2019-02-25T16:31:01.510Z,4.37
2019-02-25T16:33:33.201Z,9.73
2019-02-25T16:36:04.002Z,5.67
2019-02-25T16:38:34.138Z,4.93
2019-02-25T16:41:03.698Z,29.57
2019-02-25T16:43:32.582Z,21.60
2019-02-25T16:46:06.190Z,16.23
2019-02-25T16:48:32.661Z,7.43
2019-02-25T16:51:02.728Z,8.03
2019-02-25T16:53:34.703Z,7.97
2019-02-25T16:56:02.845Z,9.00
2019-02-25T16:58:32.004Z,12.20
2019-02-25T17:01:03.681Z,7.87
2019-02-25T17:03:31.657Z,6.97
2019-02-25T17:06:02.430Z,8.30
2019-02-25T17:08:32.389Z,6.97
2019-02-25T17:11:01.183Z,7.13
2019-02-25T17:13:32.467Z,21.50
2019-02-25T17:15:59.706Z,7.43
2019-02-25T17:18:30.921Z,9.90
2019-02-25T17:20:58.162Z,10.30
2019-02-25T17:23:27.647Z,13.70
2019-02-25T17:25:56.641Z,13.33
2019-02-25T17:28:27.399Z,13.37
2019-02-25T17:30:57.486Z,13.53
2019-02-25T17:33:28.286Z,10.37
2019-02-25T17:35:57.031Z,10.73
2019-02-25T17:38:26.540Z,11.20
2019-02-25T17:40:55.481Z,8.83
2019-02-25T17:43:23.828Z,8.93
2019-02-25T17:45:52.252Z,20.23
2019-02-25T17:48:21.289Z,12.33
2019-02-25T17:50:50.022Z,10.20
2019-02-25T17:53:18.446Z,6.73
2019-02-25T17:55:46.861Z,7.57
2019-02-25T17:58:16.931Z,11.33
2019-02-25T18:00:46.246Z,8.00
2019-02-25T18:03:15.458Z,9.13
2019-02-25T18:05:44.606Z,8.97
2019-02-25T18:08:15.300Z,8.53
2019-02-25T18:10:45.128Z,10.20
2019-02-25T18:13:13.097Z,8.57
2019-02-25T18:15:41.823Z,11.40
2019-02-25T18:18:12.478Z,14.10
2019-02-25T18:20:41.542Z,18.50
2019-02-25T18:23:10.325Z,19.70
2019-02-25T18:25:40.110Z,15.80
2019-02-25T18:28:10.831Z,11.47
2019-02-25T18:30:39.913Z,11.83
2019-02-25T18:33:09.830Z,14.47
2019-02-25T18:35:40.611Z,14.40
2019-02-25T18:38:09.632Z,14.53
2019-02-25T18:40:38.748Z,11.67
2019-02-25T18:43:08.150Z,13.57
2019-02-25T18:45:38.464Z,15.43
2019-02-25T18:48:07.801Z,12.23
2019-02-25T18:50:36.163Z,10.73
2019-02-25T18:53:04.566Z,11.27
2019-02-25T18:55:34.337Z,11.30
2019-02-25T18:58:05.166Z,13.73
2019-02-25T19:00:37.382Z,12.37
2019-02-25T19:03:06.290Z,11.63
2019-02-25T19:05:38.005Z,11.27
2019-02-25T19:08:15.061Z,13.03
2019-02-25T19:10:46.157Z,11.60
2019-02-25T19:13:15.998Z,9.67
2019-02-25T19:15:44.239Z,11.43
2019-02-25T19:18:13.231Z,10.70
2019-02-25T19:20:45.338Z,15.63
2019-02-25T19:23:13.862Z,19.30
2019-02-25T19:25:44.105Z,13.03
2019-02-25T19:28:18.564Z,19.80
2019-02-25T19:30:44.198Z,18.40
2019-02-25T19:33:19.544Z,19.20
2019-02-25T19:35:46.293Z,18.40
2019-02-25T19:38:15.870Z,20.53
2019-02-25T19:40:46.603Z,19.20
2019-02-25T19:43:15.236Z,17.93
2019-02-25T19:45:45.359Z,19.60
2019-02-25T19:48:13.669Z,19.77
2019-02-25T19:50:50.665Z,27.07
2019-02-25T19:53:12.063Z,22.67
2019-02-25T19:55:44.009Z,15.33
2019-02-25T19:58:12.219Z,17.60
2019-02-25T20:00:40.557Z,15.33
2019-02-25T20:03:08.920Z,19.57
2019-02-25T20:05:41.170Z,15.10
2019-02-25T20:08:07.434Z,12.47
2019-02-25T20:10:35.925Z,12.47
2019-02-25T20:13:07.765Z,12.53
2019-02-25T20:15:37.589Z,13.60
2019-02-25T20:18:04.346Z,29.90
2019-02-25T20:20:36.026Z,25.53
2019-02-25T20:23:06.020Z,17.33
2019-02-25T20:25:34.159Z,24.57
2019-02-25T20:28:04.219Z,18.07
2019-02-25T20:30:33.230Z,14.53
2019-02-25T20:33:03.314Z,15.50
2019-02-25T20:35:31.815Z,13.77
2019-02-25T20:38:00.475Z,15.43
2019-02-25T20:40:31.058Z,13.13
2019-02-25T20:43:01.052Z,19.37
2019-02-25T20:45:35.377Z,11.63
2019-02-25T20:48:15.055Z,13.17
2019-02-25T20:50:46.521Z,14.17
2019-02-25T20:53:15.005Z,12.60
2019-02-25T20:55:43.338Z,13.17
2019-02-25T20:58:13.728Z,15.33
2019-02-25T21:00:42.424Z,15.17
2019-02-25T21:03:14.024Z,12.63
2019-02-25T21:05:41.888Z,17.67
2019-02-25T21:08:12.291Z,18.17
2019-02-25T21:10:40.348Z,16.37
2019-02-25T21:13:08.697Z,18.87
2019-02-25T21:15:38.456Z,17.53
2019-02-25T21:18:07.822Z,14.70
2019-02-25T21:20:36.355Z,15.30
2019-02-25T21:23:05.987Z,15.93
2019-02-25T21:25:36.777Z,17.77
2019-02-25T21:28:06.706Z,16.30
2019-02-25T21:30:37.195Z,17.97
2019-02-25T21:33:06.525Z,14.77
2019-02-25T21:35:37.235Z,14.33
2019-02-25T21:38:05.194Z,13.80
2019-02-25T21:40:33.535Z,17.40
2019-02-25T21:43:01.871Z,14.93
2019-02-25T21:45:32.368Z,17.43
2019-02-25T21:48:01.873Z,14.43
2019-02-25T21:50:33.063Z,14.50
2019-02-25T21:53:00.393Z,14.50
2019-02-25T21:55:31.006Z,15.43
2019-02-25T21:58:00.726Z,11.23
2019-02-25T22:00:31.998Z,11.40
2019-02-25T22:02:58.957Z,16.57
2019-02-25T22:05:27.312Z,12.80
2019-02-25T22:07:57.743Z,12.10
2019-02-25T22:10:25.699Z,14.30
2019-02-25T22:12:54.042Z,14.30
2019-02-25T22:15:22.635Z,15.07
2019-02-25T22:17:53.169Z,12.43
2019-02-25T22:20:22.523Z,12.73
2019-02-25T22:22:54.439Z,13.53
2019-02-25T22:25:22.187Z,18.80
2019-02-25T22:27:50.537Z,13.30
2019-02-25T22:30:18.886Z,17.43
2019-02-25T22:32:47.310Z,16.07
2019-02-25T22:35:15.697Z,14.00
2019-02-25T22:37:49.218Z,15.63
2019-02-25T22:40:17.171Z,16.07
2019-02-25T22:42:47.941Z,18.03
2019-02-25T22:45:18.825Z,18.73
2019-02-25T22:47:47.891Z,16.47
2019-02-25T22:50:16.244Z,19.90
2019-02-25T22:52:44.578Z,15.17
2019-02-25T22:55:15.180Z,15.50
2019-02-25T22:57:45.694Z,17.47
2019-02-25T23:00:24.423Z,18.33
2019-02-25T23:02:55.069Z,14.50
2019-02-25T23:05:25.538Z,20.37
2019-02-25T23:07:54.672Z,15.13
2019-02-25T23:10:24.188Z,14.93
2019-02-25T23:12:52.926Z,13.93
2019-02-25T23:15:23.322Z,17.57
2019-02-25T23:17:51.319Z,15.20
2019-02-25T23:20:19.726Z,14.97
2019-02-25T23:22:48.066Z,13.13
2019-02-25T23:25:16.481Z,13.77
2019-02-25T23:27:44.819Z,15.50
2019-02-25T23:30:14.803Z,14.03
2019-02-25T23:32:43.213Z,13.20
2019-02-25T23:35:13.713Z,12.93
2019-02-25T23:37:45.178Z,13.30
2019-02-25T23:40:12.525Z,14.00
2019-02-25T23:42:44.094Z,14.80
2019-02-25T23:45:13.443Z,16.50
2019-02-25T23:47:42.697Z,17.33
2019-02-25T23:50:13.698Z,15.70
2019-02-25T23:52:43.142Z,17.23
2019-02-25T23:55:14.631Z,19.80
2019-02-25T23:57:42.123Z,17.23
